createdAt,value
2022-11-30T00:01:14.127Z,5.80
2022-11-30T00:03:41.341Z,5.37
2022-11-30T00:06:11.286Z,5.72
2022-11-30T00:08:38.526Z,5.50
2022-11-30T00:11:13.717Z,5.40
2022-11-30T00:13:41.177Z,5.35
2022-11-30T00:16:08.812Z,5.32
2022-11-30T00:18:36.339Z,5.97
2022-11-30T00:21:05.212Z,5.45
2022-11-30T00:23:37.274Z,5.10
2022-11-30T00:26:06.024Z,5.68
2022-11-30T00:28:34.305Z,4.43
2022-11-30T00:31:07.818Z,5.50
2022-11-30T00:33:36.333Z,4.55
2022-11-30T00:36:06.132Z,5.53
2022-11-30T00:38:33.887Z,5.12
2022-11-30T00:41:01.715Z,4.93
2022-11-30T00:43:29.303Z,5.28
2022-11-30T00:45:56.460Z,4.05
2022-11-30T00:48:23.422Z,3.65
2022-11-30T00:50:51.396Z,4.50
2022-11-30T00:53:19.184Z,4.10
2022-11-30T00:55:46.786Z,3.83
2022-11-30T00:58:14.777Z,3.30
2022-11-30T01:00:41.744Z,3.03
2022-11-30T01:03:09.029Z,3.15
2022-11-30T01:05:36.681Z,4.03
2022-11-30T01:08:05.957Z,4.03
2022-11-30T01:10:34.439Z,4.82
2022-11-30T01:13:02.308Z,4.62
2022-11-30T01:15:29.510Z,4.78
2022-11-30T01:17:58.894Z,4.68
2022-11-30T01:20:25.786Z,3.60
2022-11-30T01:22:52.700Z,4.80
2022-11-30T01:25:19.625Z,3.80
2022-11-30T01:27:49.648Z,3.80
2022-11-30T01:30:17.340Z,3.30
2022-11-30T01:32:44.798Z,4.43
2022-11-30T01:35:11.754Z,2.55
2022-11-30T01:37:38.940Z,3.33
2022-11-30T01:40:06.981Z,2.25
2022-11-30T01:42:34.314Z,2.45
2022-11-30T01:45:02.632Z,2.42
2022-11-30T01:47:40.431Z,3.72
2022-11-30T01:50:39.676Z,3.37
2022-11-30T01:53:11.082Z,3.92
2022-11-30T01:55:46.234Z,3.65
2022-11-30T01:58:18.165Z,4.07
2022-11-30T02:00:47.592Z,3.37
2022-11-30T02:03:44.074Z,4.45
2022-11-30T02:06:11.733Z,4.40
2022-11-30T02:08:38.810Z,3.70
2022-11-30T02:11:11.409Z,3.15
2022-11-30T02:13:38.273Z,4.37
2022-11-30T02:16:23.042Z,5.32
2022-11-30T02:19:16.821Z,4.35
2022-11-30T02:22:07.958Z,4.72
2022-11-30T02:25:01.813Z,3.80
2022-11-30T02:27:49.450Z,4.53
2022-11-30T02:30:21.346Z,4.28
2022-11-30T02:33:00.493Z,3.53
2022-11-30T02:35:32.628Z,4.55
2022-11-30T02:38:02.306Z,4.22
2022-11-30T02:40:29.564Z,3.67
2022-11-30T02:42:58.517Z,4.55
2022-11-30T02:45:49.781Z,5.07
2022-11-30T02:48:23.462Z,5.78
2022-11-30T02:50:59.525Z,4.20
2022-11-30T02:53:26.729Z,4.47
2022-11-30T02:55:54.741Z,4.43
2022-11-30T02:58:22.330Z,3.97
2022-11-30T03:00:49.996Z,3.90
2022-11-30T03:03:17.149Z,4.30
2022-11-30T03:05:44.096Z,5.00
2022-11-30T03:08:11.000Z,4.20
2022-11-30T03:10:37.889Z,4.78
2022-11-30T03:13:04.903Z,4.70
2022-11-30T03:15:31.898Z,3.80
2022-11-30T03:18:02.323Z,3.72
2022-11-30T03:20:29.274Z,3.95
2022-11-30T03:23:02.492Z,4.20
2022-11-30T03:25:29.876Z,3.78
2022-11-30T03:27:56.766Z,4.25
2022-11-30T03:30:23.652Z,4.10
2022-11-30T03:32:52.348Z,4.50
2022-11-30T03:35:19.591Z,4.03
2022-11-30T03:37:47.747Z,3.58
2022-11-30T03:40:14.766Z,4.18
2022-11-30T03:42:41.712Z,3.67
2022-11-30T03:45:08.856Z,3.55
2022-11-30T03:47:35.744Z,4.20
2022-11-30T03:50:02.637Z,4.35
2022-11-30T03:52:29.577Z,2.60
2022-11-30T03:54:56.672Z,3.75
2022-11-30T03:57:23.573Z,3.85
2022-11-30T03:59:50.508Z,4.55
2022-11-30T04:02:17.386Z,4.80
2022-11-30T04:04:44.295Z,4.87
2022-11-30T04:07:11.476Z,4.22
2022-11-30T04:09:39.350Z,4.22
2022-11-30T04:12:06.750Z,4.32
2022-11-30T04:14:33.737Z,3.65
2022-11-30T04:17:00.689Z,5.12
2022-11-30T04:19:27.563Z,4.00
2022-11-30T04:21:54.557Z,3.35
2022-11-30T04:24:21.483Z,3.85
2022-11-30T04:26:48.398Z,5.43
2022-11-30T04:29:15.327Z,5.70
2022-11-30T04:31:42.321Z,5.53
2022-11-30T04:34:09.646Z,6.45
2022-11-30T04:36:36.534Z,7.03
2022-11-30T04:39:03.782Z,8.50
2022-11-30T04:41:30.745Z,7.55
2022-11-30T04:43:57.634Z,5.05
2022-11-30T04:46:24.590Z,5.05
2022-11-30T04:48:51.511Z,4.07
2022-11-30T04:51:18.395Z,3.05
2022-11-30T04:53:45.325Z,3.65
2022-11-30T04:56:13.318Z,3.87
2022-11-30T04:58:40.285Z,3.37
2022-11-30T05:01:08.051Z,4.15
2022-11-30T05:03:35.143Z,4.00
2022-11-30T05:06:02.723Z,4.32
2022-11-30T05:08:29.738Z,4.50
2022-11-30T05:10:56.716Z,5.50
2022-11-30T05:13:24.603Z,4.90
2022-11-30T05:15:53.845Z,4.87
2022-11-30T05:18:21.260Z,3.80
2022-11-30T05:20:49.872Z,3.87
2022-11-30T05:23:17.784Z,3.05
2022-11-30T05:25:45.262Z,4.28
2022-11-30T05:28:12.631Z,10.05
2022-11-30T05:30:40.550Z,5.45
2022-11-30T05:33:07.505Z,3.65
2022-11-30T05:35:34.788Z,5.70
2022-11-30T05:38:01.773Z,7.40
2022-11-30T05:40:30.160Z,7.68
2022-11-30T05:42:59.241Z,6.10
2022-11-30T05:45:26.823Z,6.00
2022-11-30T05:47:53.903Z,4.00
2022-11-30T05:50:20.910Z,5.78
2022-11-30T05:52:47.820Z,5.60
2022-11-30T05:55:14.823Z,4.37
2022-11-30T05:57:42.162Z,4.70
2022-11-30T06:00:10.002Z,5.47
2022-11-30T06:02:37.132Z,4.45
2022-11-30T06:05:04.581Z,3.28
2022-11-30T06:07:31.603Z,4.45
2022-11-30T06:09:58.518Z,3.80
2022-11-30T06:12:25.456Z,4.75
2022-11-30T06:14:52.369Z,3.65
2022-11-30T06:17:19.241Z,6.32
2022-11-30T06:19:46.134Z,5.03
2022-11-30T06:22:13.271Z,8.65
2022-11-30T06:24:40.200Z,3.22
2022-11-30T06:27:07.155Z,3.35
2022-11-30T06:29:34.069Z,4.18
2022-11-30T06:32:01.008Z,7.18
2022-11-30T06:34:30.065Z,5.70
2022-11-30T06:36:57.966Z,5.10
2022-11-30T06:39:49.963Z,5.68
2022-11-30T06:42:12.080Z,6.28
2022-11-30T06:44:38.961Z,4.95
2022-11-30T06:47:05.903Z,6.60
2022-11-30T06:49:32.973Z,6.32
2022-11-30T06:51:59.870Z,7.05
2022-11-30T06:54:26.804Z,6.78
2022-11-30T06:56:53.759Z,8.70
2022-11-30T06:59:20.665Z,8.60
2022-11-30T07:01:47.622Z,7.57
2022-11-30T07:04:14.948Z,6.82
2022-11-30T07:06:42.048Z,10.88
2022-11-30T07:09:10.450Z,4.53
2022-11-30T07:11:37.423Z,10.10
2022-11-30T07:14:04.317Z,8.27
2022-11-30T07:16:31.310Z,10.23
2022-11-30T07:18:58.221Z,8.25
2022-11-30T07:21:25.179Z,7.82
2022-11-30T07:24:10.487Z,5.32
2022-11-30T07:26:37.469Z,19.12
2022-11-30T07:29:05.440Z,11.82
2022-11-30T07:31:36.302Z,11.12
2022-11-30T07:34:07.034Z,11.12
2022-11-30T07:36:34.986Z,11.93
2022-11-30T07:39:02.461Z,9.15
2022-11-30T07:41:29.726Z,5.93
2022-11-30T07:43:56.747Z,9.23
2022-11-30T07:46:23.725Z,8.95
2022-11-30T07:48:50.826Z,6.75
2022-11-30T07:51:22.657Z,7.20
2022-11-30T07:53:50.484Z,8.77
2022-11-30T07:56:19.635Z,7.95
2022-11-30T07:58:47.574Z,6.95
2022-11-30T08:01:17.644Z,6.28
2022-11-30T08:03:44.973Z,5.18
2022-11-30T08:06:15.381Z,8.50
2022-11-30T08:08:44.261Z,6.75
2022-11-30T08:11:13.528Z,10.20
2022-11-30T08:13:40.580Z,7.05
2022-11-30T08:16:10.194Z,5.45
2022-11-30T08:18:37.500Z,8.27
2022-11-30T08:21:06.362Z,6.15
2022-11-30T08:23:36.061Z,5.22
2022-11-30T08:26:19.153Z,6.78
2022-11-30T08:28:47.550Z,7.90
2022-11-30T08:31:17.993Z,8.30
2022-11-30T08:33:45.455Z,6.32
2022-11-30T08:36:18.211Z,7.82
2022-11-30T08:38:46.677Z,7.78
2022-11-30T08:41:17.307Z,6.87
2022-11-30T08:43:44.406Z,7.45
2022-11-30T08:46:42.645Z,6.05
2022-11-30T08:49:20.977Z,8.80
2022-11-30T08:54:35.378Z,9.05
2022-11-30T08:57:02.395Z,7.80
2022-11-30T08:59:31.726Z,5.60
2022-11-30T09:01:58.695Z,5.97
2022-11-30T09:04:26.018Z,7.45
2022-11-30T09:06:52.933Z,7.90
2022-11-30T09:09:19.944Z,7.90
2022-11-30T09:11:46.834Z,7.37
2022-11-30T09:14:13.758Z,7.85
2022-11-30T09:16:40.705Z,8.35
2022-11-30T09:19:07.593Z,8.10
2022-11-30T09:21:34.555Z,7.05
2022-11-30T09:24:01.664Z,6.32
2022-11-30T09:26:28.554Z,7.32
2022-11-30T09:28:55.553Z,8.15
2022-11-30T09:31:24.439Z,9.60
2022-11-30T09:33:52.373Z,7.40
2022-11-30T09:36:21.812Z,8.45
2022-11-30T09:38:49.038Z,8.23
2022-11-30T09:41:35.808Z,7.68
2022-11-30T09:44:23.925Z,7.50
2022-11-30T09:47:01.227Z,6.95
2022-11-30T09:49:48.849Z,6.30
2022-11-30T09:52:47.164Z,5.80
2022-11-30T09:55:22.454Z,5.82
2022-11-30T09:57:54.677Z,6.70
2022-11-30T10:00:24.531Z,6.72
2022-11-30T10:02:53.704Z,6.18
2022-11-30T10:05:44.235Z,5.95
2022-11-30T10:08:26.741Z,5.47
2022-11-30T10:11:38.695Z,6.90
2022-11-30T10:14:20.733Z,4.90
2022-11-30T10:17:02.591Z,5.53
2022-11-30T10:19:51.348Z,6.72
2022-11-30T10:22:46.701Z,5.00
2022-11-30T10:25:14.671Z,4.30
2022-11-30T10:28:08.194Z,5.30
2022-11-30T10:30:46.054Z,4.37
2022-11-30T10:33:18.758Z,4.65
2022-11-30T10:35:53.266Z,4.30
2022-11-30T10:38:49.995Z,3.58
2022-11-30T10:41:29.593Z,3.40
2022-11-30T10:44:12.435Z,3.37
2022-11-30T10:46:45.667Z,3.67
2022-11-30T10:49:23.518Z,3.50
2022-11-30T10:51:56.633Z,3.30
2022-11-30T10:54:23.991Z,3.35
2022-11-30T10:56:51.013Z,3.45
2022-11-30T10:59:24.230Z,3.20
2022-11-30T11:01:53.456Z,3.87
2022-11-30T11:04:23.010Z,3.92
2022-11-30T11:07:07.149Z,4.78
2022-11-30T11:09:40.392Z,4.20
2022-11-30T11:12:24.996Z,4.20
2022-11-30T11:15:20.773Z,3.83
2022-11-30T11:17:48.062Z,3.72
2022-11-30T11:20:34.479Z,4.35
2022-11-30T11:23:03.160Z,4.97
2022-11-30T11:25:37.767Z,4.60
2022-11-30T11:28:16.579Z,4.55
2022-11-30T11:30:44.003Z,4.40
2022-11-30T11:33:14.081Z,3.45
2022-11-30T11:35:46.507Z,4.20
2022-11-30T11:38:29.923Z,3.67
2022-11-30T11:41:11.351Z,4.18
2022-11-30T11:44:11.514Z,3.50
2022-11-30T11:46:59.992Z,3.72
2022-11-30T11:49:34.526Z,3.72
2022-11-30T11:52:07.439Z,3.90
2022-11-30T11:54:51.230Z,4.95
2022-11-30T11:57:22.244Z,4.72
2022-11-30T12:00:03.092Z,4.90
2022-11-30T12:02:48.109Z,4.40
2022-11-30T12:05:21.311Z,4.75
2022-11-30T12:08:00.751Z,4.50
2022-11-30T12:10:58.346Z,4.80
2022-11-30T12:13:45.585Z,4.97
2022-11-30T12:16:20.216Z,3.95
2022-11-30T12:19:24.925Z,4.30
2022-11-30T12:21:54.729Z,4.12
2022-11-30T12:24:31.178Z,4.05
2022-11-30T12:27:18.843Z,5.37
2022-11-30T12:29:46.002Z,4.43
2022-11-30T12:32:13.110Z,4.68
2022-11-30T12:35:08.206Z,4.60
2022-11-30T12:37:51.577Z,5.00
2022-11-30T12:40:36.811Z,4.47
2022-11-30T12:43:31.151Z,4.75
2022-11-30T12:46:26.454Z,4.37
2022-11-30T12:49:02.305Z,4.50
2022-11-30T12:51:57.323Z,4.85
2022-11-30T12:54:27.066Z,5.03
2022-11-30T12:57:05.936Z,4.40
2022-11-30T12:59:48.296Z,3.80
2022-11-30T13:02:27.713Z,5.55
2022-11-30T13:05:02.086Z,5.00
2022-11-30T13:07:37.662Z,5.12
2022-11-30T13:10:17.271Z,4.78
2022-11-30T13:12:49.169Z,4.45
2022-11-30T13:15:27.328Z,5.18
2022-11-30T13:17:55.552Z,5.10
2022-11-30T13:20:45.290Z,5.30
2022-11-30T13:23:34.380Z,5.75
2022-11-30T13:26:36.669Z,5.55
2022-11-30T13:29:54.222Z,5.53
2022-11-30T13:32:56.000Z,6.53
2022-11-30T13:35:30.575Z,5.93
2022-11-30T13:41:04.968Z,5.68
2022-11-30T13:43:47.813Z,6.12
2022-11-30T13:46:23.805Z,5.37
2022-11-30T13:49:18.790Z,4.97
2022-11-30T13:51:46.124Z,6.18
2022-11-30T13:54:54.600Z,5.87
2022-11-30T13:57:27.580Z,5.20
2022-11-30T13:59:55.273Z,6.68
2022-11-30T14:02:42.075Z,6.43
2022-11-30T14:05:18.252Z,6.15
2022-11-30T14:07:52.997Z,6.87
2022-11-30T14:10:29.372Z,7.07
2022-11-30T14:13:11.623Z,8.35
2022-11-30T14:15:38.510Z,7.50
2022-11-30T14:18:19.466Z,7.05
2022-11-30T14:20:51.784Z,6.75
2022-11-30T14:23:26.786Z,7.75
2022-11-30T14:25:57.145Z,7.28
2022-11-30T14:28:39.066Z,9.20
2022-11-30T14:31:15.316Z,10.40
2022-11-30T14:33:51.399Z,10.95
2022-11-30T14:36:19.709Z,10.68
2022-11-30T14:38:46.848Z,11.70
2022-11-30T14:41:28.658Z,11.02
2022-11-30T14:44:14.593Z,9.27
2022-11-30T14:46:41.951Z,10.18
2022-11-30T14:49:23.547Z,9.77
2022-11-30T14:52:13.755Z,10.38
2022-11-30T14:54:49.939Z,9.40
2022-11-30T14:57:32.171Z,10.23
2022-11-30T14:59:59.433Z,8.00
2022-11-30T15:02:39.149Z,8.57
2022-11-30T15:05:08.596Z,8.07
2022-11-30T15:07:36.349Z,8.45
2022-11-30T15:10:15.778Z,8.63
2022-11-30T15:12:45.114Z,9.77
2022-11-30T15:15:17.213Z,8.52
2022-11-30T15:18:11.610Z,8.68
2022-11-30T15:20:44.370Z,8.48
2022-11-30T15:23:15.579Z,8.50
2022-11-30T15:25:46.394Z,8.25
2022-11-30T15:28:37.856Z,9.80
2022-11-30T15:31:09.502Z,10.13
2022-11-30T15:34:02.948Z,12.18
2022-11-30T15:36:38.320Z,11.35
2022-11-30T15:39:07.822Z,11.88
2022-11-30T15:41:35.872Z,12.82
2022-11-30T15:44:02.891Z,12.10
2022-11-30T15:46:32.958Z,11.27
2022-11-30T15:49:26.333Z,13.18
2022-11-30T15:52:11.175Z,13.07
2022-11-30T15:54:56.714Z,14.15
2022-11-30T15:57:26.132Z,16.20
2022-11-30T16:00:06.420Z,15.40
2022-11-30T16:02:37.697Z,13.50
2022-11-30T16:05:14.589Z,13.40
2022-11-30T16:07:55.187Z,14.63
2022-11-30T16:10:27.432Z,13.98
2022-11-30T16:12:55.352Z,12.98
2022-11-30T16:15:29.373Z,11.90
2022-11-30T16:18:20.842Z,12.37
2022-11-30T16:21:01.611Z,12.13
2022-11-30T16:23:29.305Z,11.77
2022-11-30T16:25:56.494Z,12.70
2022-11-30T16:28:23.585Z,11.82
2022-11-30T16:30:50.903Z,12.52
2022-11-30T16:33:20.701Z,12.68
2022-11-30T16:36:08.132Z,13.57
2022-11-30T16:38:35.243Z,13.38
2022-11-30T16:41:23.262Z,12.88
2022-11-30T16:43:57.873Z,12.60
2022-11-30T16:46:29.228Z,12.77
2022-11-30T16:48:56.345Z,13.00
2022-11-30T16:51:27.535Z,12.77
2022-11-30T16:53:55.462Z,11.60
2022-11-30T16:56:23.137Z,13.27
2022-11-30T16:58:50.204Z,11.15
2022-11-30T17:01:34.578Z,11.50
2022-11-30T17:04:17.925Z,10.50
2022-11-30T17:06:49.801Z,11.30
2022-11-30T17:09:18.463Z,11.15
2022-11-30T17:11:47.581Z,11.45
2022-11-30T17:14:14.980Z,11.45
2022-11-30T17:16:42.693Z,12.45
2022-11-30T17:19:10.005Z,12.20
2022-11-30T17:21:38.962Z,11.27
2022-11-30T17:24:06.532Z,11.02
2022-11-30T17:26:33.625Z,10.55
2022-11-30T17:29:00.506Z,11.23
2022-11-30T17:31:27.927Z,11.15
2022-11-30T17:33:54.917Z,11.40
2022-11-30T17:36:23.333Z,11.07
2022-11-30T17:38:50.629Z,12.05
2022-11-30T17:41:19.724Z,12.18
2022-11-30T17:43:48.445Z,12.07
2022-11-30T17:46:17.957Z,11.55
2022-11-30T17:48:45.135Z,11.68
2022-11-30T17:51:12.787Z,11.85
2022-11-30T17:53:41.280Z,10.93
2022-11-30T17:56:10.446Z,11.82
2022-11-30T17:58:43.524Z,10.15
2022-11-30T18:01:25.610Z,11.55
2022-11-30T18:03:53.735Z,10.60
2022-11-30T18:06:21.005Z,9.95
2022-11-30T18:08:48.322Z,11.15
2022-11-30T18:11:20.545Z,11.75
2022-11-30T18:13:49.004Z,11.20
2022-11-30T18:16:18.947Z,12.02
2022-11-30T18:18:48.347Z,11.18
2022-11-30T18:21:21.382Z,11.63
2022-11-30T18:23:49.369Z,13.73
2022-11-30T18:26:19.353Z,12.07
2022-11-30T18:28:47.791Z,11.93
2022-11-30T18:31:14.734Z,13.65
2022-11-30T18:33:41.709Z,13.05
2022-11-30T18:36:08.951Z,12.35
2022-11-30T18:38:38.499Z,12.65
2022-11-30T18:41:06.814Z,13.23
2022-11-30T18:43:34.372Z,12.73
2022-11-30T18:46:10.781Z,11.98
2022-11-30T18:48:39.159Z,13.15
2022-11-30T18:51:26.494Z,11.65
2022-11-30T18:53:59.413Z,12.10
2022-11-30T18:56:28.775Z,11.00
2022-11-30T18:59:12.177Z,11.15
2022-11-30T19:01:39.443Z,10.73
2022-11-30T19:04:08.874Z,10.60
2022-11-30T19:06:37.211Z,10.85
2022-11-30T19:09:10.557Z,12.88
2022-11-30T19:11:38.857Z,13.38
2022-11-30T19:14:06.874Z,14.77
2022-11-30T19:16:35.087Z,14.77
2022-11-30T19:19:08.603Z,11.57
2022-11-30T19:21:35.582Z,12.05
2022-11-30T19:24:02.587Z,13.70
2022-11-30T19:26:30.071Z,12.48
2022-11-30T19:28:58.194Z,13.05
2022-11-30T19:31:25.896Z,13.70
2022-11-30T19:33:54.824Z,13.05
2022-11-30T19:36:26.919Z,14.55
2022-11-30T19:38:54.579Z,13.88
2022-11-30T19:41:22.201Z,13.43
2022-11-30T19:44:02.750Z,13.43
2022-11-30T19:46:32.127Z,13.18
2022-11-30T19:49:01.317Z,13.23
2022-11-30T19:51:29.598Z,13.38
2022-11-30T19:53:57.677Z,14.95
2022-11-30T19:56:25.617Z,13.85
2022-11-30T19:58:53.175Z,12.35
2022-11-30T20:01:25.369Z,14.02
2022-11-30T20:03:54.340Z,13.65
2022-11-30T20:06:25.554Z,12.05
2022-11-30T20:08:52.472Z,13.38
2022-11-30T20:11:19.580Z,13.18
2022-11-30T20:13:46.495Z,13.52
2022-11-30T20:16:17.805Z,16.05
2022-11-30T20:18:50.824Z,14.85
2022-11-30T20:21:30.275Z,13.73
2022-11-30T20:23:59.389Z,15.40
2022-11-30T20:26:32.004Z,15.27
2022-11-30T20:29:01.426Z,14.38
2022-11-30T20:31:30.701Z,15.85
2022-11-30T20:33:58.579Z,14.52
2022-11-30T20:36:25.621Z,13.48
2022-11-30T20:38:52.544Z,14.00
2022-11-30T20:41:22.203Z,14.23
2022-11-30T20:43:49.475Z,14.23
2022-11-30T20:46:19.862Z,13.75
2022-11-30T20:48:47.870Z,14.40
2022-11-30T20:51:35.556Z,13.18
2022-11-30T20:54:06.829Z,14.43
2022-11-30T20:56:36.807Z,13.60
2022-11-30T20:59:19.588Z,14.87
2022-11-30T21:01:47.033Z,14.40
2022-11-30T21:04:14.075Z,12.57
2022-11-30T21:06:45.649Z,12.98
2022-11-30T21:09:18.087Z,16.23
2022-11-30T21:11:45.648Z,15.68
2022-11-30T21:14:13.449Z,16.25
2022-11-30T21:16:40.918Z,17.95
2022-11-30T21:19:08.009Z,16.10
2022-11-30T21:21:36.257Z,18.52
2022-11-30T21:24:06.669Z,20.00
2022-11-30T21:26:36.372Z,17.20
2022-11-30T21:29:15.157Z,19.60
2022-11-30T21:31:42.956Z,18.15
2022-11-30T21:34:09.963Z,18.10
2022-11-30T21:36:36.946Z,15.50
2022-11-30T21:39:07.052Z,15.25
2022-11-30T21:41:38.897Z,15.35
2022-11-30T21:44:07.889Z,15.77
2022-11-30T21:46:35.039Z,15.10
2022-11-30T21:49:02.939Z,12.50
2022-11-30T21:51:32.001Z,14.23
2022-11-30T21:54:01.739Z,14.75
2022-11-30T21:56:31.232Z,14.82
2022-11-30T21:58:58.899Z,13.98
2022-11-30T22:01:41.699Z,14.52
2022-11-30T22:04:10.336Z,15.60
2022-11-30T22:06:38.929Z,17.05
2022-11-30T22:09:08.615Z,15.27
2022-11-30T22:11:40.433Z,15.80
2022-11-30T22:14:12.142Z,14.77
2022-11-30T22:16:39.270Z,16.45
2022-11-30T22:19:07.360Z,14.38
2022-11-30T22:21:34.988Z,14.55
2022-11-30T22:24:06.833Z,17.27
2022-11-30T22:26:39.343Z,15.13
2022-11-30T22:29:13.369Z,15.73
2022-11-30T22:31:42.739Z,16.10
2022-11-30T22:34:10.196Z,14.63
2022-11-30T22:36:40.696Z,14.70
2022-11-30T22:39:10.398Z,15.02
2022-11-30T22:41:38.397Z,16.80
2022-11-30T22:44:05.447Z,15.13
2022-11-30T22:46:35.533Z,14.82
2022-11-30T22:49:04.373Z,14.65
2022-11-30T22:51:32.848Z,15.43
2022-11-30T22:54:01.168Z,14.13
2022-11-30T22:56:36.497Z,13.95
2022-11-30T22:59:04.734Z,13.45
2022-11-30T23:01:37.413Z,14.05
2022-11-30T23:04:07.642Z,13.60
2022-11-30T23:06:35.983Z,14.55
2022-11-30T23:09:04.600Z,15.15
2022-11-30T23:11:31.742Z,16.27
2022-11-30T23:13:58.889Z,15.63
2022-11-30T23:16:25.886Z,15.05
2022-11-30T23:18:55.624Z,15.23
2022-11-30T23:21:26.389Z,14.75
2022-11-30T23:23:54.495Z,15.85
2022-11-30T23:26:24.313Z,17.50
2022-11-30T23:28:53.163Z,17.20
2022-11-30T23:31:34.037Z,14.60
2022-11-30T23:34:08.575Z,14.35
2022-11-30T23:36:36.320Z,13.68
2022-11-30T23:39:06.970Z,12.98
2022-11-30T23:41:34.179Z,11.32
2022-11-30T23:44:01.475Z,13.65
2022-11-30T23:46:28.545Z,12.48
2022-11-30T23:48:55.910Z,11.18
2022-11-30T23:51:23.984Z,11.52
2022-11-30T23:53:50.945Z,11.35
2022-11-30T23:56:20.244Z,12.65
2022-11-30T23:58:47.799Z,11.38
